createdAt,value
2023-07-23T00:28:31.154Z,8
2023-07-23T00:57:10.180Z,8
2023-07-23T01:26:00.402Z,8
2023-07-23T01:54:35.407Z,8
2023-07-23T02:23:21.498Z,8
2023-07-23T02:52:09.732Z,8
2023-07-23T03:20:44.735Z,9
2023-07-23T03:49:39.798Z,9
2023-07-23T04:18:27.282Z,9
2023-07-23T04:47:12.944Z,9
2023-07-23T05:15:53.745Z,8
2023-07-23T05:44:42.066Z,8
2023-07-23T06:13:35.558Z,9
2023-07-23T06:42:22.324Z,7
2023-07-23T07:11:39.885Z,6
2023-07-23T07:40:28.968Z,6
2023-07-23T08:08:58.635Z,7
2023-07-23T08:37:33.601Z,6
2023-07-23T09:06:22.011Z,6
2023-07-23T09:34:57.867Z,6
2023-07-23T10:03:23.787Z,7
2023-07-23T10:31:52.314Z,7
2023-07-23T10:59:59.022Z,7
2023-07-23T11:28:25.118Z,6
2023-07-23T11:56:55.370Z,6
2023-07-23T12:25:15.141Z,6
2023-07-23T12:54:16.699Z,7
2023-07-23T13:22:17.848Z,7
2023-07-23T13:50:51.328Z,9
2023-07-23T14:19:00.293Z,8
2023-07-23T14:47:34.391Z,12
2023-07-23T15:16:05.625Z,13
2023-07-23T15:44:43.966Z,13
2023-07-23T16:13:04.702Z,14
2023-07-23T16:41:42.074Z,14
2023-07-23T17:10:12.979Z,14
2023-07-23T17:38:43.203Z,16
2023-07-23T18:07:13.801Z,16
2023-07-23T18:35:42.691Z,15
2023-07-23T19:04:06.518Z,16
2023-07-23T19:32:30.401Z,15
2023-07-23T20:00:49.530Z,16
2023-07-23T20:29:21.686Z,16
2023-07-23T20:57:45.965Z,16
2023-07-23T21:26:07.990Z,16
2023-07-23T21:54:47.839Z,17
2023-07-23T22:23:06.926Z,16
2023-07-23T22:51:53.589Z,16
2023-07-23T23:20:37.735Z,16
2023-07-23T23:49:21.988Z,16
